Time;durP1;ratioP1;P1;durP2;ratioP2;P2;SDS_P1;SDS_P2;PMS_P1;PMS_P2;Temp;Humidity;BMP_temperature;BMP_pressure;BME280_temperature;BME280_humidity;BME280_pressure;Samples;Min_cycle;Max_cycle;Signal;HPM_P1;HPM_P2
2023/10/10 00:00:42;;;;;;;1.10;1.00;;;;;;;;;;5088654;28;20056;-58
2023/10/10 00:02:58;;;;;;;1.43;0.80;;;;;;;;;;5088436;28;20451;-58
2023/10/10 00:05:35;;;;;;;1.43;0.93;;;;;;;;;;5091644;28;20058;-59
2023/10/10 00:08:05;;;;;;;2.83;1.43;;;;;;;;;;5093533;28;20371;-57
2023/10/10 00:10:34;;;;;;;2.27;1.10;;;;;;;;;;5093927;28;20077;-58
2023/10/10 00:13:01;;;;;;;3.20;1.60;;;;;;;;;;5092467;28;20035;-57
2023/10/10 00:15:34;;;;;;;1.20;0.87;;;;;;;;;;5094002;28;20024;-57
2023/10/10 00:18:10;;;;;;;2.07;1.47;;;;;;;;;;5089797;28;20020;-57
2023/10/10 00:20:44;;;;;;;2.60;1.10;;;;;;;;;;5088176;28;20032;-58
2023/10/10 00:23:12;;;;;;;2.67;1.35;;;;;;;;;;5088534;28;20111;-57
2023/10/10 00:25:42;;;;;;;1.60;1.17;;;;;;;;;;5088678;28;20486;-57
2023/10/10 00:28:18;;;;;;;2.70;1.67;;;;;;;;;;5091498;28;20027;-58
2023/10/10 00:30:45;;;;;;;0.67;0.57;;;;;;;;;;5093413;28;20064;-57
2023/10/10 00:33:16;;;;;;;3.03;1.50;;;;;;;;;;5092962;28;20027;-58
2023/10/10 00:35:47;;;;;;;1.03;0.80;;;;;;;;;;5092987;28;20062;-58
2023/10/10 00:38:19;;;;;;;1.70;1.10;;;;;;;;;;5093377;28;20039;-57
2023/10/10 00:40:47;;;;;;;4.63;1.87;;;;;;;;;;5088973;28;20098;-57
2023/10/10 00:43:22;;;;;;;1.70;1.10;;;;;;;;;;5087937;28;20044;-58
2023/10/10 00:45:57;;;;;;;4.32;1.50;;;;;;;;;;5087907;28;20059;-57
2023/10/10 00:48:29;;;;;;;1.47;1.13;;;;;;;;;;5088118;28;20031;-57
2023/10/10 00:51:05;;;;;;;2.37;1.40;;;;;;;;;;5091893;28;20028;-58
2023/10/10 00:53:35;;;;;;;4.23;2.00;;;;;;;;;;5093012;28;20035;-58
2023/10/10 00:56:06;;;;;;;2.07;1.50;;;;;;;;;;5092711;28;20024;-57
2023/10/10 00:58:36;;;;;;;1.70;1.10;;;;;;;;;;5092267;28;20090;-57
2023/10/10 01:01:10;;;;;;;3.03;2.33;;;;;;;;;;5092467;28;20032;-58
2023/10/10 01:03:42;;;;;;;2.87;1.80;;;;;;;;;;5088070;28;20450;-58
2023/10/10 01:06:31;;;;;;;3.10;2.33;;;;;;;;;;5087859;28;20042;-58
2023/10/10 01:09:04;;;;;;;2.23;1.70;;;;;;;;;;5087191;28;20042;-57
2023/10/10 01:11:30;;;;;;;5.30;2.42;;;;;;;;;;5087793;28;20035;-57
2023/10/10 01:13:57;;;;;;;3.60;2.10;;;;;;;;;;5092469;28;20150;-57
2023/10/10 01:16:25;;;;;;;4.80;2.30;;;;;;;;;;5092665;28;20413;-57
2023/10/10 01:18:57;;;;;;;5.17;1.40;;;;;;;;;;5092633;28;20027;-57
2023/10/10 01:21:30;;;;;;;3.30;1.97;;;;;;;;;;5092748;28;20032;-57
2023/10/10 01:24:18;;;;;;;7.80;2.80;;;;;;;;;;5091330;28;20024;-57
2023/10/10 01:26:52;;;;;;;2.73;2.33;;;;;;;;;;5087520;28;20024;-57
2023/10/10 01:29:27;;;;;;;3.00;2.03;;;;;;;;;;5087577;28;20012;-57
2023/10/10 01:31:54;;;;;;;2.47;1.53;;;;;;;;;;5087123;28;20077;-57
2023/10/10 01:34:31;;;;;;;4.80;1.90;;;;;;;;;;5088510;28;20038;-58
2023/10/10 01:37:29;;;;;;;2.33;1.53;;;;;;;;;;5072249;28;20127;-57
2023/10/10 01:39:55;;;;;;;2.22;1.52;;;;;;;;;;5071636;28;20108;-58
2023/10/10 01:42:35;;;;;;;2.53;1.60;;;;;;;;;;5071853;28;20029;-57
2023/10/10 01:45:07;;;;;;;2.30;1.77;;;;;;;;;;5072097;28;20025;-57
2023/10/10 01:47:41;;;;;;;2.80;1.83;;;;;;;;;;5077026;28;20114;-58
2023/10/10 01:50:10;;;;;;;2.47;1.70;;;;;;;;;;5087289;28;20111;-59
2023/10/10 01:52:37;;;;;;;4.10;2.03;;;;;;;;;;5087145;28;20065;-57
2023/10/10 01:55:05;;;;;;;3.33;1.87;;;;;;;;;;5087145;28;20075;-57
2023/10/10 01:57:31;;;;;;;2.73;2.13;;;;;;;;;;5089655;28;20016;-58
2023/10/10 02:00:05;;;;;;;2.20;1.73;;;;;;;;;;5091757;28;20039;-57
2023/10/10 02:02:34;;;;;;;3.50;1.97;;;;;;;;;;5072329;28;20024;-57
2023/10/10 02:05:03;;;;;;;1.43;1.13;;;;;;;;;;5071755;28;20093;-58
2023/10/10 02:07:31;;;;;;;1.60;1.30;;;;;;;;;;5071253;28;20094;-57
2023/10/10 02:10:13;;;;;;;3.13;1.13;;;;;;;;;;5068758;28;20052;-57
2023/10/10 02:12:45;;;;;;;1.67;1.20;;;;;;;;;;5083798;28;20082;-57
2023/10/10 02:15:13;;;;;;;2.40;1.57;;;;;;;;;;5087123;28;20579;-57
2023/10/10 02:17:50;;;;;;;4.17;2.00;;;;;;;;;;5086924;28;20382;-57
2023/10/10 02:21:06;;;;;;;2.50;1.57;;;;;;;;;;5090416;28;20085;-57
2023/10/10 02:25:37;;;;;;;1.70;1.10;;;;;;;;;;5091981;28;20070;-57
2023/10/10 02:28:08;;;;;;;2.33;1.83;;;;;;;;;;5091688;28;20513;-57
2023/10/10 02:30:36;;;;;;;2.50;1.47;;;;;;;;;;5091934;28;20017;-57
2023/10/10 02:35:55;;;;;;;2.00;1.53;;;;;;;;;;5086682;28;20040;-57
2023/10/10 02:38:23;;;;;;;2.50;1.80;;;;;;;;;;5090361;28;20104;-58
2023/10/10 02:40:56;;;;;;;4.33;2.13;;;;;;;;;;5090523;28;20024;-58
2023/10/10 02:43:46;;;;;;;3.23;2.20;;;;;;;;;;5094033;28;20074;-57
2023/10/10 02:46:18;;;;;;;3.43;1.70;;;;;;;;;;5095006;28;20476;-57
2023/10/10 02:48:45;;;;;;;2.97;1.50;;;;;;;;;;5095027;28;20016;-57
2023/10/10 02:51:15;;;;;;;7.67;1.93;;;;;;;;;;5095189;28;20020;-57
2023/10/10 02:53:46;;;;;;;3.63;1.93;;;;;;;;;;5094130;28;20510;-57
2023/10/10 02:56:18;;;;;;;2.90;1.90;;;;;;;;;;5090076;28;20089;-57
2023/10/10 02:58:47;;;;;;;6.87;1.70;;;;;;;;;;5090175;28;20530;-57
2023/10/10 03:01:55;;;;;;;3.83;2.07;;;;;;;;;;5089722;28;20457;-57
2023/10/10 03:04:08;;;;;;;5.40;2.10;;;;;;;;;;5090291;28;20039;-57
2023/10/10 03:06:35;;;;;;;3.07;1.80;;;;;;;;;;5094394;28;20035;-59
2023/10/10 03:09:18;;;;;;;1.80;1.43;;;;;;;;;;5094666;28;20355;-58
2023/10/10 03:12:03;;;;;;;2.47;1.77;;;;;;;;;;5094537;28;20103;-57
2023/10/10 03:14:34;;;;;;;1.40;1.00;;;;;;;;;;5094691;28;20486;-58
2023/10/10 03:17:31;;;;;;;2.60;1.77;;;;;;;;;;5081414;28;20027;-58
2023/10/10 03:19:50;;;;;;;1.90;1.20;;;;;;;;;;5068242;28;20040;-58
2023/10/10 03:22:29;;;;;;;1.53;1.20;;;;;;;;;;5069620;28;20458;-57
2023/10/10 03:25:07;;;;;;;2.40;1.67;;;;;;;;;;5069661;28;20054;-58
2023/10/10 03:28:20;;;;;;;2.97;1.80;;;;;;;;;;5073001;28;20031;-57
2023/10/10 03:33:10;;;;;;;2.05;1.10;;;;;;;;;;5073844;28;20079;-57
2023/10/10 03:36:00;;;;;;;1.27;1.10;;;;;;;;;;5074324;28;20058;-58
2023/10/10 05:23:35;;;;;;;1.08;0.85;;;;;;;;;;5072015;28;20040;-57
2023/10/10 05:26:05;;;;;;;0.87;0.70;;;;;;;;;;5072058;28;20471;-57
2023/10/10 05:28:32;;;;;;;1.10;0.73;;;;;;;;;;5072141;28;20028;-57
2023/10/10 05:30:59;;;;;;;1.30;0.90;;;;;;;;;;5070141;28;20031;-58
2023/10/10 05:33:26;;;;;;;1.53;0.97;;;;;;;;;;5066850;28;20074;-57
2023/10/10 05:35:59;;;;;;;2.20;1.10;;;;;;;;;;5067172;28;20411;-57
2023/10/10 05:38:26;;;;;;;1.80;1.00;;;;;;;;;;5067107;28;20029;-57
2023/10/10 05:40:53;;;;;;;1.60;0.90;;;;;;;;;;5067523;28;20016;-57
2023/10/10 05:43:26;;;;;;;1.00;0.80;;;;;;;;;;5071847;28;20017;-58
2023/10/10 05:45:53;;;;;;;3.07;1.37;;;;;;;;;;5071653;28;20059;-57
2023/10/10 05:48:20;;;;;;;13.43;0.73;;;;;;;;;;5072010;28;20036;-57
2023/10/10 05:50:48;;;;;;;2.93;1.03;;;;;;;;;;5071990;28;20024;-57
2023/10/10 05:53:16;;;;;;;1.57;1.10;;;;;;;;;;5070159;28;20040;-57
2023/10/10 05:55:43;;;;;;;1.17;0.80;;;;;;;;;;5066635;28;20021;-57
2023/10/10 05:58:12;;;;;;;0.60;0.60;;;;;;;;;;5065842;28;20398;-56
2023/10/10 06:00:41;;;;;;;0.83;0.70;;;;;;;;;;5066337;28;20153;-56
2023/10/10 06:03:08;;;;;;;0.83;0.70;;;;;;;;;;5067602;28;20035;-57
2023/10/10 06:05:35;;;;;;;1.33;0.80;;;;;;;;;;5071782;28;20023;-56
2023/10/10 06:08:02;;;;;;;2.40;1.00;;;;;;;;;;5071862;28;20028;-56
2023/10/10 06:10:34;;;;;;;1.63;0.80;;;;;;;;;;5072761;28;20039;-56
2023/10/10 06:13:06;;;;;;;2.20;0.57;;;;;;;;;;5075277;28;20028;-56
2023/10/10 06:15:33;;;;;;;1.20;0.90;;;;;;;;;;5074139;28;20118;-56
2023/10/10 06:18:13;;;;;;;1.27;0.97;;;;;;;;;;5070469;28;20029;-56
2023/10/10 06:20:43;;;;;;;1.10;0.87;;;;;;;;;;5070425;28;20025;-57
2023/10/10 06:23:11;;;;;;;0.63;0.50;;;;;;;;;;5070348;28;20029;-57
2023/10/10 06:25:38;;;;;;;1.27;0.77;;;;;;;;;;5071509;28;20040;-56
2023/10/10 06:28:06;;;;;;;3.07;0.83;;;;;;;;;;5075351;28;20056;-56
2023/10/10 06:30:39;;;;;;;1.63;1.10;;;;;;;;;;5075407;28;20103;-56
2023/10/10 06:33:10;;;;;;;0.60;0.60;;;;;;;;;;5075052;28;20101;-56
2023/10/10 06:35:37;;;;;;;1.90;1.27;;;;;;;;;;5075180;28;20029;-57
2023/10/10 06:38:10;;;;;;;0.63;0.43;;;;;;;;;;5073363;28;20098;-57
2023/10/10 06:40:44;;;;;;;3.50;0.97;;;;;;;;;;5069888;28;20134;-56
2023/10/10 06:43:11;;;;;;;2.45;1.13;;;;;;;;;;5070188;28;20044;-57
2023/10/10 06:45:39;;;;;;;1.00;0.80;;;;;;;;;;5069803;28;20096;-56
2023/10/10 06:48:08;;;;;;;1.57;1.10;;;;;;;;;;5071400;28;20056;-56
2023/10/10 06:50:38;;;;;;;2.00;0.93;;;;;;;;;;5075275;28;20097;-57
2023/10/10 06:53:05;;;;;;;7.30;0.93;;;;;;;;;;5094089;28;20135;-56
2023/10/10 06:55:37;;;;;;;1.53;1.10;;;;;;;;;;5091700;28;20028;-56
2023/10/10 06:58:06;;;;;;;1.40;1.10;;;;;;;;;;5074601;28;20029;-57
2023/10/10 07:00:45;;;;;;;0.57;0.57;;;;;;;;;;5072849;28;20032;-57
2023/10/10 07:03:27;;;;;;;1.87;1.27;;;;;;;;;;5069874;28;20020;-56
2023/10/10 07:05:57;;;;;;;1.05;0.88;;;;;;;;;;5050575;28;20025;-57
2023/10/10 07:08:26;;;;;;;0.93;0.77;;;;;;;;;;5067457;28;20450;-57
2023/10/10 07:10:56;;;;;;;1.53;1.10;;;;;;;;;;5071658;28;20021;-57
2023/10/10 07:13:29;;;;;;;0.87;0.80;;;;;;;;;;5074717;28;21299;-56
2023/10/10 07:15:59;;;;;;;0.73;0.73;;;;;;;;;;5074412;28;20028;-57
2023/10/10 07:18:26;;;;;;;1.00;0.90;;;;;;;;;;5073940;28;20032;-57
2023/10/10 07:24:02;;;;;;;1.43;1.03;;;;;;;;;;5070708;28;20042;-57
2023/10/10 07:26:30;;;;;;;0.80;0.80;;;;;;;;;;5068957;28;20408;-57
2023/10/10 07:29:22;;;;;;;1.27;0.97;;;;;;;;;;5068998;28;20036;-56
2023/10/10 07:31:44;;;;;;;0.77;0.67;;;;;;;;;;5068923;28;20060;-56
2023/10/10 07:34:15;;;;;;;0.87;0.67;;;;;;;;;;5072975;28;20039;-57
2023/10/10 07:36:44;;;;;;;0.97;0.87;;;;;;;;;;5074135;28;20029;-57
2023/10/10 07:42:09;;;;;;;;;;;;;;;;;;5054518;28;20037;-57
2023/10/10 07:44:36;;;;;;;0.90;0.83;;;;;;;;;;5073547;28;19905;-56
2023/10/10 07:48:38;;;;;;;1.43;1.10;;;;;;;;;;5068769;28;20020;-56
2023/10/10 07:49:50;;;;;;;2.37;1.20;;;;;;;;;;5064334;28;20066;-56
2023/10/10 07:52:20;;;;;;;1.20;1.00;;;;;;;;;;5068380;28;20032;-57
2023/10/10 07:54:51;;;;;;;1.10;0.90;;;;;;;;;;5068528;28;20043;-56
2023/10/10 07:57:22;;;;;;;0.87;0.70;;;;;;;;;;5073646;28;20021;-56
2023/10/10 07:59:58;;;;;;;4.20;1.40;;;;;;;;;;5072954;28;20021;-57
2023/10/10 08:02:31;;;;;;;1.00;0.80;;;;;;;;;;5073276;28;20364;-56
2023/10/10 08:05:01;;;;;;;1.37;1.07;;;;;;;;;;5073627;28;20399;-56
2023/10/10 08:07:29;;;;;;;0.40;0.40;;;;;;;;;;5071971;28;20023;-56
2023/10/10 08:10:16;;;;;;;1.53;1.13;;;;;;;;;;5068327;28;20082;-56
2023/10/10 08:12:43;;;;;;;1.23;0.90;;;;;;;;;;5068349;28;20541;-56
2023/10/10 08:15:19;;;;;;;1.23;1.00;;;;;;;;;;5067572;28;20062;-56
2023/10/10 08:17:52;;;;;;;1.27;1.07;;;;;;;;;;5069780;28;20024;-56
2023/10/10 08:23:05;;;;;;;2.20;1.73;;;;;;;;;;5073538;28;20042;-56
2023/10/10 08:25:33;;;;;;;4.10;1.70;;;;;;;;;;5073111;28;20020;-57
2023/10/10 08:28:00;;;;;;;3.53;1.70;;;;;;;;;;5073274;28;20040;-57
2023/10/10 08:30:27;;;;;;;3.73;1.97;;;;;;;;;;5070128;28;20021;-56
2023/10/10 08:32:55;;;;;;;1.70;1.40;;;;;;;;;;5067826;28;20361;-57
2023/10/10 08:35:23;;;;;;;13.27;1.53;;;;;;;;;;5066534;28;20467;-56
2023/10/10 08:37:52;;;;;;;1.80;1.27;;;;;;;;;;5067522;28;20031;-57
2023/10/10 08:40:22;;;;;;;4.60;1.63;;;;;;;;;;5069280;28;20033;-56
2023/10/10 08:42:50;;;;;;;1.13;1.00;;;;;;;;;;5072855;28;20403;-56
2023/10/10 08:45:24;;;;;;;1.53;0.93;;;;;;;;;;5072707;28;20024;-56
2023/10/10 08:48:00;;;;;;;2.03;1.02;;;;;;;;;;5072734;28;20028;-56
2023/10/10 08:50:34;;;;;;;1.97;1.00;;;;;;;;;;5072340;28;20032;-57
2023/10/10 08:53:02;;;;;;;0.50;0.50;;;;;;;;;;5069384;28;20244;-56
2023/10/10 08:55:29;;;;;;;0.57;0.50;;;;;;;;;;5067501;28;20044;-56
2023/10/10 08:57:56;;;;;;;1.00;0.80;;;;;;;;;;5067083;28;20028;-57
2023/10/10 09:00:27;;;;;;;0.67;0.60;;;;;;;;;;5067333;28;20023;-56
2023/10/10 09:02:57;;;;;;;1.33;0.90;;;;;;;;;;5069895;28;20044;-56
2023/10/10 09:05:28;;;;;;;0.80;0.73;;;;;;;;;;5072584;28;20032;-56
2023/10/10 09:07:55;;;;;;;0.53;0.43;;;;;;;;;;5072220;28;20016;-56
2023/10/10 09:10:28;;;;;;;0.63;0.53;;;;;;;;;;5072277;28;20020;-57
2023/10/10 09:12:56;;;;;;;0.97;0.70;;;;;;;;;;5072373;28;20016;-57
2023/10/10 09:15:23;;;;;;;5.77;1.40;;;;;;;;;;5068780;28;20482;-56
2023/10/10 09:17:55;;;;;;;0.63;0.60;;;;;;;;;;5067170;28;20112;-57
2023/10/10 09:20:30;;;;;;;1.27;0.77;;;;;;;;;;5066800;28;20043;-57
2023/10/10 09:23:11;;;;;;;1.33;0.90;;;;;;;;;;5067137;28;20031;-57
2023/10/10 09:25:42;;;;;;;1.03;0.90;;;;;;;;;;5070072;28;20020;-57
2023/10/10 09:28:15;;;;;;;0.60;0.60;;;;;;;;;;5071800;28;20502;-57
2023/10/10 09:30:58;;;;;;;4.10;0.93;;;;;;;;;;5071995;28;20029;-56
2023/10/10 09:33:30;;;;;;;0.97;0.70;;;;;;;;;;5072004;28;20029;-56
2023/10/10 09:36:15;;;;;;;1.03;0.77;;;;;;;;;;5071931;28;20035;-56
2023/10/10 09:38:46;;;;;;;0.87;0.57;;;;;;;;;;5066989;28;20048;-57
2023/10/10 09:41:37;;;;;;;0.80;0.70;;;;;;;;;;5066775;28;20514;-56
2023/10/10 09:47:13;;;;;;;0.33;0.33;;;;;;;;;;5067166;28;20442;-57
2023/10/10 09:57:44;;;;;;;0.80;0.73;;;;;;;;;;5071901;28;20047;-57
2023/10/10 10:00:15;;;;;;;2.03;1.13;;;;;;;;;;5068791;28;20104;-57
2023/10/10 10:02:49;;;;;;;0.53;0.53;;;;;;;;;;5066402;28;20036;-57
2023/10/10 10:05:18;;;;;;;1.20;0.90;;;;;;;;;;5066641;28;20032;-57
2023/10/10 10:07:56;;;;;;;0.73;0.60;;;;;;;;;;5066552;28;20031;-57
2023/10/10 10:10:34;;;;;;;0.83;0.50;;;;;;;;;;5069239;28;20036;-57
2023/10/10 10:13:08;;;;;;;0.60;0.60;;;;;;;;;;5071421;28;20025;-57
2023/10/10 10:16:08;;;;;;;1.88;0.77;;;;;;;;;;5051663;28;20069;-56
2023/10/10 10:18:44;;;;;;;0.50;0.50;;;;;;;;;;5031449;28;20036;-57
2023/10/10 10:21:33;;;;;;;0.70;0.60;;;;;;;;;;5051513;28;20096;-56
2023/10/10 10:24:15;;;;;;;0.90;0.67;;;;;;;;;;5046521;28;20025;-56
2023/10/10 10:26:43;;;;;;;2.50;0.90;;;;;;;;;;5059137;28;20479;-56
2023/10/10 10:29:16;;;;;;;0.63;0.63;;;;;;;;;;5066363;28;20379;-57
2023/10/10 10:31:57;;;;;;;2.30;1.03;;;;;;;;;;5067387;28;20025;-57
2023/10/10 10:34:31;;;;;;;2.07;0.63;;;;;;;;;;5071368;28;20035;-57
2023/10/10 10:37:13;;;;;;;0.40;0.40;;;;;;;;;;5071276;28;20486;-58
2023/10/10 10:40:21;;;;;;;1.33;0.90;;;;;;;;;;5067195;28;20071;-57
2023/10/10 10:42:28;;;;;;;1.13;1.00;;;;;;;;;;5069926;28;20064;-57
2023/10/10 10:44:58;;;;;;;0.57;0.53;;;;;;;;;;5068169;28;20024;-56
2023/10/10 10:48:07;;;;;;;7.47;0.67;;;;;;;;;;5066149;28;20033;-56
2023/10/10 10:50:30;;;;;;;0.90;0.83;;;;;;;;;;5064630;28;20033;-56
2023/10/10 10:53:05;;;;;;;1.80;1.17;;;;;;;;;;5065841;28;20047;-56
2023/10/10 10:55:39;;;;;;;12.13;1.27;;;;;;;;;;5070412;28;20032;-56
2023/10/10 10:58:20;;;;;;;0.85;0.80;;;;;;;;;;5073325;28;20032;-56
2023/10/10 11:03:33;;;;;;;0.90;0.80;;;;;;;;;;5074525;28;20780;-56
2023/10/10 11:06:07;;;;;;;1.03;0.90;;;;;;;;;;5074427;28;20033;-57
2023/10/10 11:14:01;;;;;;;1.52;1.10;;;;;;;;;;5069241;28;20511;-57
2023/10/10 11:16:36;;;;;;;1.83;1.10;;;;;;;;;;5070526;28;20025;-56
2023/10/10 11:21:53;;;;;;;1.03;0.87;;;;;;;;;;5074138;28;20032;-56
2023/10/10 11:24:26;;;;;;;0.93;0.83;;;;;;;;;;5074510;28;20021;-57
2023/10/10 11:30:24;;;;;;;1.33;1.15;;;;;;;;;;5071215;28;20032;-56
2023/10/10 11:32:25;;;;;;;1.90;1.47;;;;;;;;;;5064454;28;20511;-57
2023/10/10 11:35:22;;;;;;;1.00;0.90;;;;;;;;;;5068833;28;20033;-57
2023/10/10 11:37:58;;;;;;;1.60;1.10;;;;;;;;;;5068481;28;20485;-56
2023/10/10 11:42:58;;;;;;;1.03;0.93;;;;;;;;;;5074050;28;20032;-56
2023/10/10 11:45:26;;;;;;;1.70;1.40;;;;;;;;;;5073280;28;20368;-56
2023/10/10 11:47:53;;;;;;;0.97;0.90;;;;;;;;;;5074171;28;20028;-56
2023/10/10 11:50:29;;;;;;;3.97;1.73;;;;;;;;;;5074094;28;20131;-56
2023/10/10 11:53:01;;;;;;;1.53;1.23;;;;;;;;;;5068392;28;20040;-57
2023/10/10 11:55:29;;;;;;;1.30;1.10;;;;;;;;;;5068201;28;20045;-56
2023/10/10 11:58:07;;;;;;;1.43;1.10;;;;;;;;;;5068476;28;20048;-56
2023/10/10 12:00:43;;;;;;;1.60;0.83;;;;;;;;;;5068383;28;20056;-56
2023/10/10 12:03:18;;;;;;;1.27;1.03;;;;;;;;;;5073604;28;20025;-56
2023/10/10 12:05:51;;;;;;;2.22;1.08;;;;;;;;;;5073454;28;20025;-57
2023/10/10 12:08:27;;;;;;;1.87;1.47;;;;;;;;;;5073248;28;20021;-57
2023/10/10 12:11:06;;;;;;;3.07;1.60;;;;;;;;;;5073286;28;20439;-56
2023/10/10 12:13:33;;;;;;;1.67;1.33;;;;;;;;;;5071617;28;20140;-56
2023/10/10 12:16:01;;;;;;;2.60;1.60;;;;;;;;;;5068235;28;20016;-57
2023/10/10 12:18:31;;;;;;;1.77;1.50;;;;;;;;;;5068247;28;20544;-56
2023/10/10 12:21:04;;;;;;;1.93;1.10;;;;;;;;;;5067322;28;20540;-57
2023/10/10 12:23:32;;;;;;;1.37;1.27;;;;;;;;;;5068971;28;20021;-56
2023/10/10 12:25:59;;;;;;;4.13;1.37;;;;;;;;;;5072884;28;20024;-56
2023/10/10 12:28:26;;;;;;;1.30;1.03;;;;;;;;;;5073043;28;20029;-56
2023/10/10 12:30:56;;;;;;;3.30;1.53;;;;;;;;;;5073177;28;20032;-57
2023/10/10 12:33:27;;;;;;;1.30;1.10;;;;;;;;;;5073049;28;20024;-56
2023/10/10 12:35:56;;;;;;;3.57;1.00;;;;;;;;;;5070886;28;20135;-56
2023/10/10 12:38:23;;;;;;;2.90;1.20;;;;;;;;;;5067682;28;20501;-56
2023/10/10 12:40:53;;;;;;;1.67;1.07;;;;;;;;;;5067673;28;20020;-56
2023/10/10 12:43:20;;;;;;;2.13;1.40;;;;;;;;;;5067647;28;20024;-56
2023/10/10 12:45:47;;;;;;;1.70;1.30;;;;;;;;;;5068125;28;20025;-57
2023/10/10 12:48:20;;;;;;;0.60;0.60;;;;;;;;;;5072932;28;20027;-56
2023/10/10 12:50:52;;;;;;;1.33;1.20;;;;;;;;;;5072601;28;20094;-57
2023/10/10 12:53:20;;;;;;;1.87;1.40;;;;;;;;;;5072468;28;20131;-56
2023/10/10 12:56:01;;;;;;;2.17;1.70;;;;;;;;;;5072649;28;20517;-56
2023/10/10 12:58:30;;;;;;;2.67;1.47;;;;;;;;;;5070018;28;20031;-56
2023/10/10 13:00:58;;;;;;;3.00;2.00;;;;;;;;;;5066819;28;20033;-56
2023/10/10 13:03:29;;;;;;;23.67;1.70;;;;;;;;;;5067282;28;20040;-56
2023/10/10 13:06:00;;;;;;;2.50;2.00;;;;;;;;;;5067141;28;20032;-56
2023/10/10 13:08:47;;;;;;;1.77;1.47;;;;;;;;;;5068680;28;20067;-56
2023/10/10 13:11:20;;;;;;;1.37;1.00;;;;;;;;;;5072037;28;20107;-56
2023/10/10 13:13:56;;;;;;;1.60;1.47;;;;;;;;;;5071596;28;20031;-56
2023/10/10 13:19:11;;;;;;;1.00;0.90;;;;;;;;;;5072514;28;20523;-57
2023/10/10 13:21:39;;;;;;;2.13;1.37;;;;;;;;;;5067433;28;20116;-56
2023/10/10 13:24:13;;;;;;;3.13;1.80;;;;;;;;;;5067149;28;20547;-56
2023/10/10 13:26:41;;;;;;;5.10;2.83;;;;;;;;;;5067027;28;20394;-56
2023/10/10 13:29:08;;;;;;;3.27;1.83;;;;;;;;;;5066823;28;20020;-56
2023/10/10 13:31:37;;;;;;;3.47;2.20;;;;;;;;;;5069812;28;20036;-56
2023/10/10 13:34:04;;;;;;;2.43;2.03;;;;;;;;;;5072034;28;20070;-57
2023/10/10 13:36:32;;;;;;;3.37;2.17;;;;;;;;;;5069273;28;20094;-57
2023/10/10 13:39:05;;;;;;;3.27;2.40;;;;;;;;;;5052429;28;20037;-57
2023/10/10 13:41:35;;;;;;;3.40;2.50;;;;;;;;;;5063718;28;20113;-57
2023/10/10 13:44:03;;;;;;;4.03;2.93;;;;;;;;;;5068037;28;20108;-57
2023/10/10 13:46:33;;;;;;;3.97;3.17;;;;;;;;;;5066858;28;20028;-57
2023/10/10 13:49:00;;;;;;;4.50;3.73;;;;;;;;;;5066857;28;20036;-57
2023/10/10 13:51:36;;;;;;;4.07;2.93;;;;;;;;;;5066844;28;20025;-58
2023/10/10 13:54:03;;;;;;;4.47;3.27;;;;;;;;;;5069720;28;20800;-57
2023/10/10 13:56:30;;;;;;;8.57;3.23;;;;;;;;;;5072079;28;20552;-57
2023/10/10 13:58:58;;;;;;;2.50;1.90;;;;;;;;;;5071759;28;20089;-57
2023/10/10 14:01:36;;;;;;;3.83;2.77;;;;;;;;;;5072050;28;20025;-57
2023/10/10 14:04:46;;;;;;;3.37;2.23;;;;;;;;;;5071860;28;20460;-57
2023/10/10 14:06:54;;;;;;;4.27;2.50;;;;;;;;;;5041206;28;20037;-57
2023/10/10 14:09:31;;;;;;;4.47;2.03;;;;;;;;;;5046609;28;20104;-57
2023/10/10 14:12:03;;;;;;;3.93;2.10;;;;;;;;;;5046372;28;20064;-57
2023/10/10 14:14:30;;;;;;;2.53;1.93;;;;;;;;;;5063848;28;20041;-56
2023/10/10 14:16:57;;;;;;;1.80;1.53;;;;;;;;;;5071245;28;20024;-57
2023/10/10 14:19:24;;;;;;;2.83;1.97;;;;;;;;;;5071562;28;20056;-57
2023/10/10 14:21:54;;;;;;;2.67;2.17;;;;;;;;;;5071742;28;20077;-56
2023/10/10 14:24:21;;;;;;;2.83;2.10;;;;;;;;;;5071182;28;20036;-56
2023/10/10 14:26:48;;;;;;;3.77;1.73;;;;;;;;;;5071242;28;20020;-57
2023/10/10 14:29:15;;;;;;;4.63;1.87;;;;;;;;;;5078929;28;20028;-57
2023/10/10 14:31:43;;;;;;;1.63;1.20;;;;;;;;;;5072430;28;20032;-57
2023/10/10 14:34:15;;;;;;;1.83;1.30;;;;;;;;;;5070187;28;20170;-56
2023/10/10 14:36:42;;;;;;;2.30;1.60;;;;;;;;;;5070333;28;20108;-57
2023/10/10 14:39:08;;;;;;;3.30;1.70;;;;;;;;;;5074609;28;20021;-56
2023/10/10 14:41:35;;;;;;;1.70;1.40;;;;;;;;;;5074511;28;20470;-56
2023/10/10 14:44:03;;;;;;;3.23;1.80;;;;;;;;;;5074166;28;20081;-56
2023/10/10 14:46:31;;;;;;;1.13;1.03;;;;;;;;;;5075266;28;20029;-57
2023/10/10 14:49:16;;;;;;;2.13;1.67;;;;;;;;;;5075125;28;20017;-57
2023/10/10 14:51:48;;;;;;;1.65;1.45;;;;;;;;;;5069622;28;20044;-57
2023/10/10 14:54:19;;;;;;;2.27;1.77;;;;;;;;;;5069329;28;20088;-57
2023/10/10 14:56:46;;;;;;;2.00;1.37;;;;;;;;;;5069822;28;20024;-58
2023/10/10 14:59:20;;;;;;;1.97;1.47;;;;;;;;;;5070052;28;20028;-57
2023/10/10 15:01:51;;;;;;;8.13;1.42;;;;;;;;;;5074168;28;20060;-57
2023/10/10 15:04:19;;;;;;;3.20;1.53;;;;;;;;;;5060591;28;20378;-58
2023/10/10 15:06:46;;;;;;;3.80;1.60;;;;;;;;;;5074891;28;20028;-57
2023/10/10 15:09:20;;;;;;;34.33;1.60;;;;;;;;;;5066879;28;20048;-57
2023/10/10 15:11:47;;;;;;;1.60;1.17;;;;;;;;;;5054255;28;20061;-58
2023/10/10 15:14:18;;;;;;;1.90;1.40;;;;;;;;;;5058948;28;20041;-57
2023/10/10 15:16:49;;;;;;;1.50;1.03;;;;;;;;;;5069919;28;20411;-57
2023/10/10 15:19:15;;;;;;;3.53;1.30;;;;;;;;;;5069263;28;20048;-57
2023/10/10 15:21:47;;;;;;;0.57;0.43;;;;;;;;;;5068424;28;20071;-58
2023/10/10 15:24:15;;;;;;;0.87;0.60;;;;;;;;;;5074477;28;20030;-57
2023/10/10 15:26:51;;;;;;;0.93;0.70;;;;;;;;;;5074533;28;20025;-57
2023/10/10 15:29:20;;;;;;;0.70;0.57;;;;;;;;;;5073936;28;20036;-58
2023/10/10 15:31:49;;;;;;;0.57;0.57;;;;;;;;;;5074321;28;20094;-57
2023/10/10 15:34:16;;;;;;;1.20;0.83;;;;;;;;;;5073346;28;20479;-58
2023/10/10 15:36:46;;;;;;;1.40;0.88;;;;;;;;;;5069293;28;20029;-57
2023/10/10 15:39:13;;;;;;;1.15;0.77;;;;;;;;;;5068908;28;20127;-57
2023/10/10 15:41:42;;;;;;;1.55;0.80;;;;;;;;;;5069198;28;20457;-58
2023/10/10 15:44:12;;;;;;;5.50;1.45;;;;;;;;;;5068546;28;20052;-57
2023/10/10 15:46:39;;;;;;;1.52;0.93;;;;;;;;;;5073860;28;20028;-57
2023/10/10 15:49:12;;;;;;;0.63;0.57;;;;;;;;;;5073989;28;20109;-58
2023/10/10 15:51:39;;;;;;;1.50;1.00;;;;;;;;;;5073536;28;20027;-57
2023/10/10 15:54:09;;;;;;;0.93;0.60;;;;;;;;;;5073809;28;20484;-57
2023/10/10 15:56:36;;;;;;;0.50;0.43;;;;;;;;;;5072885;28;20103;-57
2023/10/10 15:59:03;;;;;;;0.30;0.30;;;;;;;;;;5068610;28;20021;-58
2023/10/10 16:01:31;;;;;;;0.68;0.43;;;;;;;;;;5068648;28;20027;-57
2023/10/10 16:04:05;;;;;;;0.70;0.43;;;;;;;;;;5068124;28;20024;-58
2023/10/10 16:06:33;;;;;;;0.73;0.32;;;;;;;;;;5068092;28;20029;-58
2023/10/10 16:09:08;;;;;;;1.45;0.70;;;;;;;;;;5073703;28;20497;-57
2023/10/10 16:11:34;;;;;;;0.30;0.20;;;;;;;;;;5073357;28;20020;-58
2023/10/10 16:14:08;;;;;;;2.95;0.45;;;;;;;;;;5073352;28;20039;-58
2023/10/10 16:16:34;;;;;;;0.45;0.43;;;;;;;;;;5070886;28;20021;-57
2023/10/10 16:19:04;;;;;;;0.30;0.30;;;;;;;;;;5059772;28;20078;-57
2023/10/10 16:21:31;;;;;;;2.10;1.00;;;;;;;;;;5067481;28;20086;-58
2023/10/10 16:23:58;;;;;;;0.77;0.52;;;;;;;;;;5053435;28;20021;-58
2023/10/10 16:26:24;;;;;;;0.60;0.40;;;;;;;;;;5048244;28;20037;-58
2023/10/10 16:28:51;;;;;;;0.75;0.45;;;;;;;;;;5066040;28;20119;-57
2023/10/10 16:31:20;;;;;;;0.50;0.30;;;;;;;;;;5072993;28;20031;-58
2023/10/10 16:33:49;;;;;;;0.60;0.40;;;;;;;;;;5073092;28;20040;-57
2023/10/10 16:36:18;;;;;;;2.08;0.57;;;;;;;;;;5070755;28;20043;-59
2023/10/10 16:38:45;;;;;;;0.77;0.52;;;;;;;;;;5072425;28;20356;-58
2023/10/10 16:41:12;;;;;;;2.45;0.95;;;;;;;;;;5072944;28;20096;-58
2023/10/10 16:43:39;;;;;;;0.57;0.43;;;;;;;;;;5067845;28;20028;-58
2023/10/10 16:46:09;;;;;;;0.45;0.40;;;;;;;;;;5067787;28;20028;-57
2023/10/10 16:48:38;;;;;;;0.68;0.47;;;;;;;;;;5067468;28;20033;-58
2023/10/10 16:51:08;;;;;;;0.63;0.40;;;;;;;;;;5067381;28;20021;-58
2023/10/10 16:53:39;;;;;;;1.05;0.63;;;;;;;;;;5072072;28;20032;-57
2023/10/10 16:56:09;;;;;;;0.85;0.63;;;;;;;;;;5071927;28;20020;-58
2023/10/10 16:58:40;;;;;;;0.95;0.65;;;;;;;;;;5072157;28;20042;-58
2023/10/10 17:01:12;;;;;;;1.83;0.68;;;;;;;;;;5072402;28;20051;-58
2023/10/10 17:03:43;;;;;;;1.13;0.80;;;;;;;;;;5072313;28;20016;-58
2023/10/10 17:06:10;;;;;;;0.63;0.52;;;;;;;;;;5067418;28;20027;-58
2023/10/10 17:08:37;;;;;;;0.80;0.60;;;;;;;;;;5067184;28;20024;-58
2023/10/10 17:11:25;;;;;;;0.95;0.40;;;;;;;;;;5067024;28;20028;-58
2023/10/10 17:13:53;;;;;;;1.20;0.73;;;;;;;;;;5067239;28;20117;-58
2023/10/10 17:16:31;;;;;;;0.50;0.30;;;;;;;;;;5072260;28;20039;-58
2023/10/10 17:18:58;;;;;;;7.55;0.98;;;;;;;;;;5071815;28;20691;-58
2023/10/10 17:21:27;;;;;;;0.63;0.60;;;;;;;;;;5072395;28;20431;-58
2023/10/10 17:23:57;;;;;;;0.82;0.57;;;;;;;;;;5072336;28;20017;-57
2023/10/10 17:26:24;;;;;;;0.25;0.17;;;;;;;;;;5071054;28;20029;-58
2023/10/10 17:28:51;;;;;;;0.63;0.52;;;;;;;;;;5066785;28;20386;-59
2023/10/10 17:31:23;;;;;;;0.98;0.50;;;;;;;;;;5066867;28;20040;-58
2023/10/10 17:33:50;;;;;;;0.30;0.30;;;;;;;;;;5067200;28;20548;-58
2023/10/10 17:36:20;;;;;;;0.40;0.40;;;;;;;;;;5067258;28;20379;-58
2023/10/10 17:38:48;;;;;;;0.85;0.30;;;;;;;;;;5072214;28;20056;-58
2023/10/10 17:41:15;;;;;;;8.63;0.40;;;;;;;;;;5071685;28;20036;-58